createdAt,value
2022-08-12T00:00:14.781Z,1.58
2022-08-12T00:02:41.760Z,1.52
2022-08-12T00:05:08.951Z,1.55
2022-08-12T00:07:36.975Z,1.50
2022-08-12T00:10:04.277Z,1.52
2022-08-12T00:12:31.097Z,1.80
2022-08-12T00:14:57.785Z,1.55
2022-08-12T00:17:24.425Z,1.70
2022-08-12T00:19:51.459Z,1.45
2022-08-12T00:22:18.053Z,1.45
2022-08-12T00:24:44.754Z,1.65
2022-08-12T00:27:11.449Z,1.55
2022-08-12T00:29:38.173Z,1.63
2022-08-12T00:32:04.984Z,1.70
2022-08-12T00:34:32.466Z,1.60
2022-08-12T00:37:05.483Z,1.55
2022-08-12T00:39:41.416Z,1.58
2022-08-12T00:42:08.416Z,1.50
2022-08-12T00:44:35.070Z,1.60
2022-08-12T00:47:01.820Z,1.58
2022-08-12T00:49:29.286Z,1.90
2022-08-12T00:51:57.143Z,1.48
2022-08-12T00:54:23.766Z,1.40
2022-08-12T00:59:17.360Z,1.45
2022-08-12T01:02:10.830Z,1.73
2022-08-12T01:04:31.482Z,1.30
2022-08-12T01:06:58.712Z,1.70
2022-08-12T01:09:25.405Z,1.60
2022-08-12T01:11:52.288Z,1.60
2022-08-12T01:14:19.765Z,1.67
2022-08-12T01:16:47.300Z,1.50
2022-08-12T01:19:15.192Z,1.63
2022-08-12T01:22:02.123Z,1.42
2022-08-12T01:24:49.541Z,1.40
2022-08-12T01:30:44.962Z,1.60
2022-08-12T01:33:16.273Z,1.38
2022-08-12T01:35:45.473Z,1.50
2022-08-12T01:38:30.045Z,1.33
2022-08-12T01:40:56.979Z,1.83
2022-08-12T01:43:23.886Z,1.52
2022-08-12T01:45:57.711Z,1.77
2022-08-12T01:48:59.306Z,1.65
2022-08-12T01:52:15.841Z,1.60
2022-08-12T01:54:26.080Z,1.40
2022-08-12T01:57:10.758Z,1.58
2022-08-12T01:59:47.401Z,1.45
2022-08-12T02:02:19.751Z,1.60
2022-08-12T02:05:18.525Z,1.38
2022-08-12T02:08:19.578Z,1.40
2022-08-12T02:10:55.706Z,1.50
2022-08-12T02:13:49.054Z,1.65
2022-08-12T02:16:37.989Z,1.50
2022-08-12T02:19:23.098Z,1.60
2022-08-12T02:22:04.806Z,1.30
2022-08-12T02:24:32.358Z,1.52
2022-08-12T02:26:58.910Z,1.52
2022-08-12T02:29:25.680Z,1.60
2022-08-12T02:31:52.266Z,1.60
2022-08-12T02:34:18.825Z,1.60
2022-08-12T02:36:45.905Z,1.63
2022-08-12T02:39:15.589Z,1.70
2022-08-12T02:41:43.248Z,1.60
2022-08-12T02:44:10.020Z,1.50
2022-08-12T02:46:36.828Z,1.80
2022-08-12T02:49:11.792Z,1.58
2022-08-12T02:51:40.301Z,1.48
2022-08-12T02:54:06.998Z,1.60
2022-08-12T02:56:39.237Z,1.65
2022-08-12T02:59:06.768Z,1.58
2022-08-12T03:01:34.381Z,1.70
2022-08-12T03:04:03.285Z,1.65
2022-08-12T03:06:40.116Z,1.50
2022-08-12T03:09:07.137Z,1.70
2022-08-12T03:11:42.298Z,1.60
2022-08-12T03:14:10.874Z,1.50
2022-08-12T03:16:37.488Z,1.40
2022-08-12T03:19:05.203Z,1.50
2022-08-12T03:21:54.625Z,1.63
2022-08-12T03:24:20.250Z,1.60
2022-08-12T03:26:47.683Z,1.60
2022-08-12T03:29:14.314Z,1.67
2022-08-12T03:31:40.962Z,1.60
2022-08-12T03:34:09.255Z,1.70
2022-08-12T03:36:37.662Z,1.45
2022-08-12T03:39:08.987Z,1.73
2022-08-12T03:41:35.642Z,1.40
2022-08-12T03:44:16.975Z,1.70
2022-08-12T03:46:45.664Z,1.65
2022-08-12T03:49:12.336Z,1.60
2022-08-12T03:51:38.995Z,1.45
2022-08-12T03:54:05.682Z,1.73
2022-08-12T03:56:35.361Z,1.70
2022-08-12T03:59:02.841Z,1.67
2022-08-12T04:01:29.999Z,1.48
2022-08-12T04:03:56.723Z,1.70
2022-08-12T04:06:34.814Z,1.40
2022-08-12T04:09:02.454Z,1.70
2022-08-12T04:11:32.121Z,1.58
2022-08-12T04:14:06.753Z,1.60
2022-08-12T04:16:34.975Z,1.60
2022-08-12T04:19:01.668Z,1.80
2022-08-12T04:21:28.354Z,1.65
2022-08-12T04:23:55.105Z,1.70
2022-08-12T04:26:21.753Z,1.60
2022-08-12T04:28:48.472Z,1.70
2022-08-12T04:31:15.139Z,1.70
2022-08-12T04:33:42.725Z,1.40
2022-08-12T04:36:09.511Z,1.73
2022-08-12T04:38:36.586Z,1.77
2022-08-12T04:41:03.717Z,1.65
2022-08-12T04:43:53.781Z,1.60
2022-08-12T04:46:20.895Z,1.70
2022-08-12T04:48:53.450Z,1.73
2022-08-12T04:51:20.941Z,1.70
2022-08-12T04:53:47.795Z,1.70
2022-08-12T04:56:14.581Z,1.60
2022-08-12T04:58:41.213Z,1.50
2022-08-12T05:01:07.958Z,1.70
2022-08-12T05:03:46.012Z,1.55
2022-08-12T05:06:16.900Z,1.83
2022-08-12T05:08:56.750Z,1.60
2022-08-12T05:11:24.375Z,1.50
2022-08-12T05:13:52.323Z,1.70
2022-08-12T05:16:19.115Z,2.10
2022-08-12T05:18:56.874Z,1.70
2022-08-12T05:21:23.538Z,1.60
2022-08-12T05:23:50.215Z,1.70
2022-08-12T05:26:16.922Z,1.70
2022-08-12T05:28:43.594Z,1.80
2022-08-12T05:31:10.328Z,1.63
2022-08-12T05:33:36.943Z,1.80
2022-08-12T05:36:08.043Z,1.45
2022-08-12T05:38:34.853Z,1.80
2022-08-12T05:41:02.444Z,1.30
2022-08-12T05:43:29.127Z,1.73
2022-08-12T05:45:55.883Z,1.60
2022-08-12T05:48:22.526Z,1.40
2022-08-12T05:50:49.165Z,1.50
2022-08-12T05:53:15.863Z,1.25
2022-08-12T05:55:42.569Z,1.48
2022-08-12T05:58:09.297Z,1.77
2022-08-12T06:00:36.175Z,1.40
2022-08-12T06:03:03.435Z,1.48
2022-08-12T06:05:31.433Z,1.30
2022-08-12T06:07:59.383Z,1.38
2022-08-12T06:10:32.000Z,1.23
2022-08-12T06:13:02.319Z,1.27
2022-08-12T06:15:29.365Z,1.35
2022-08-12T06:18:03.189Z,1.30
2022-08-12T06:20:34.337Z,1.60
2022-08-12T06:23:01.229Z,1.25
2022-08-12T06:25:28.066Z,1.25
2022-08-12T06:28:06.407Z,1.23
2022-08-12T06:30:37.848Z,1.20
2022-08-12T06:33:11.818Z,1.10
2022-08-12T06:35:49.871Z,1.33
2022-08-12T06:38:18.594Z,1.27
2022-08-12T06:40:45.982Z,1.33
2022-08-12T06:43:12.689Z,1.58
2022-08-12T06:45:45.623Z,1.38
2022-08-12T06:48:13.476Z,1.35
2022-08-12T06:50:40.513Z,1.30
2022-08-12T06:53:07.218Z,1.13
2022-08-12T06:55:33.979Z,1.30
2022-08-12T06:58:07.775Z,1.65
2022-08-12T07:00:37.418Z,1.60
2022-08-12T07:03:22.413Z,1.60
2022-08-12T07:05:50.994Z,1.42
2022-08-12T07:08:17.883Z,1.10
2022-08-12T07:10:46.495Z,1.35
2022-08-12T07:13:13.186Z,1.10
2022-08-12T07:15:39.964Z,1.25
2022-08-12T07:18:10.705Z,1.23
2022-08-12T07:20:52.217Z,2.10
2022-08-12T07:23:20.189Z,1.90
2022-08-12T07:25:46.867Z,1.67
2022-08-12T07:28:24.560Z,1.30
2022-08-12T07:30:52.584Z,1.02
2022-08-12T07:33:24.031Z,1.20
2022-08-12T07:35:51.877Z,1.35
2022-08-12T07:38:29.677Z,1.13
2022-08-12T07:41:06.698Z,1.27
2022-08-12T07:43:35.258Z,1.27
2022-08-12T07:46:04.449Z,1.42
2022-08-12T07:48:42.843Z,1.42
2022-08-12T07:51:09.597Z,1.40
2022-08-12T07:53:47.628Z,1.45
2022-08-12T07:56:23.246Z,1.40
2022-08-12T07:58:49.994Z,1.15
2022-08-12T08:01:19.988Z,1.38
2022-08-12T08:03:49.000Z,1.20
2022-08-12T08:06:19.246Z,1.10
2022-08-12T08:08:46.875Z,1.10
2022-08-12T08:11:13.517Z,0.93
2022-08-12T08:13:41.979Z,1.10
2022-08-12T08:16:08.792Z,0.95
2022-08-12T08:18:35.805Z,1.00
2022-08-12T08:21:02.843Z,1.20
2022-08-12T08:23:35.194Z,1.30
2022-08-12T08:26:03.857Z,1.55
2022-08-12T08:28:30.540Z,1.17
2022-08-12T08:30:57.309Z,1.00
2022-08-12T08:34:04.180Z,1.00
2022-08-12T08:36:16.341Z,0.90
2022-08-12T08:38:57.599Z,0.95
2022-08-12T08:42:15.207Z,0.80
2022-08-12T08:44:12.411Z,0.90
2022-08-12T08:46:42.334Z,1.25
2022-08-12T08:49:09.106Z,1.40
2022-08-12T08:51:35.726Z,0.90
2022-08-12T08:54:02.465Z,0.93
2022-08-12T08:56:29.191Z,0.80
2022-08-12T08:58:56.115Z,0.80
2022-08-12T09:01:22.935Z,0.80
2022-08-12T09:05:08.069Z,0.70
2022-08-12T09:06:37.779Z,0.60
2022-08-12T09:09:13.220Z,0.80
2022-08-12T09:12:07.301Z,1.00
2022-08-12T09:14:29.372Z,0.77
2022-08-12T09:16:56.366Z,0.73
2022-08-12T09:19:26.794Z,0.70
2022-08-12T09:21:55.527Z,0.80
2022-08-12T09:24:22.304Z,0.80
2022-08-12T09:26:49.045Z,0.77
2022-08-12T09:29:17.873Z,0.52
2022-08-12T09:32:03.543Z,0.82
2022-08-12T09:34:34.137Z,0.70
2022-08-12T09:37:19.643Z,0.57
2022-08-12T09:40:03.159Z,0.70
2022-08-12T09:42:43.459Z,0.63
2022-08-12T09:45:18.420Z,0.75
2022-08-12T09:47:46.345Z,0.50
2022-08-12T09:50:26.382Z,0.60
2022-08-12T09:53:15.176Z,0.77
2022-08-12T09:56:05.910Z,0.60
2022-08-12T09:58:57.574Z,0.52
2022-08-12T10:01:23.436Z,0.70
2022-08-12T10:03:55.637Z,0.70
2022-08-12T10:06:36.124Z,0.60
2022-08-12T10:09:06.420Z,0.80
2022-08-12T10:12:09.768Z,0.70
2022-08-12T10:14:21.766Z,0.77
2022-08-12T10:17:01.438Z,0.77
2022-08-12T10:19:36.679Z,0.60
2022-08-12T10:22:03.928Z,0.70
2022-08-12T10:24:30.553Z,0.60
2022-08-12T10:26:57.184Z,0.60
2022-08-12T10:30:38.249Z,0.80
2022-08-12T10:32:21.574Z,0.80
2022-08-12T10:34:53.602Z,0.80
2022-08-12T10:38:33.218Z,0.68
2022-08-12T10:40:15.713Z,0.65
2022-08-12T10:42:47.201Z,0.60
2022-08-12T10:45:18.033Z,0.60
2022-08-12T10:48:16.075Z,0.68
2022-08-12T10:50:58.362Z,0.50
2022-08-12T10:53:19.827Z,0.60
2022-08-12T10:55:48.993Z,0.57
2022-08-12T10:58:30.738Z,0.50
2022-08-12T11:01:49.014Z,0.50
2022-08-12T11:04:24.947Z,0.60
2022-08-12T11:07:07.263Z,0.60
2022-08-12T11:09:18.970Z,0.65
2022-08-12T11:12:35.506Z,0.40
2022-08-12T11:14:53.038Z,0.50
2022-08-12T11:17:42.954Z,0.55
2022-08-12T11:20:08.575Z,0.57
2022-08-12T11:22:41.729Z,0.60
2022-08-12T11:25:10.636Z,0.50
2022-08-12T11:27:38.005Z,0.50
2022-08-12T11:30:06.860Z,0.68
2022-08-12T11:32:39.512Z,0.63
2022-08-12T11:35:06.879Z,0.40
2022-08-12T11:37:57.651Z,0.52
2022-08-12T11:40:20.235Z,0.60
2022-08-12T11:42:47.421Z,0.50
2022-08-12T11:45:17.107Z,0.60
2022-08-12T11:47:44.315Z,0.50
2022-08-12T11:50:11.887Z,0.70
2022-08-12T11:52:56.477Z,0.60
2022-08-12T11:55:24.656Z,0.50
2022-08-12T11:58:51.171Z,0.60
2022-08-12T12:03:44.103Z,0.40
2022-08-12T12:06:17.181Z,0.55
2022-08-12T12:08:50.513Z,0.60
2022-08-12T12:11:18.184Z,0.40
2022-08-12T12:14:08.175Z,0.50
2022-08-12T12:16:39.871Z,0.40
2022-08-12T12:19:10.188Z,0.40
2022-08-12T12:21:48.604Z,0.60
2022-08-12T12:24:22.594Z,0.43
2022-08-12T12:26:59.836Z,0.50
2022-08-12T12:30:18.250Z,0.60
2022-08-12T12:32:18.562Z,0.77
2022-08-12T12:35:14.284Z,0.50
2022-08-12T12:38:03.615Z,0.40
2022-08-12T12:40:33.047Z,0.40
2022-08-12T12:43:05.083Z,0.60
2022-08-12T12:45:33.528Z,0.40
2022-08-12T12:48:07.980Z,0.40
2022-08-12T12:50:51.971Z,0.50
2022-08-12T12:54:05.114Z,0.40
2022-08-12T12:56:05.783Z,0.45
2022-08-12T12:58:33.161Z,0.57
2022-08-12T13:01:01.240Z,0.52
2022-08-12T13:03:35.497Z,0.85
2022-08-12T13:06:16.275Z,1.63
2022-08-12T13:08:46.754Z,0.65
2022-08-12T13:11:14.711Z,0.73
2022-08-12T13:14:06.834Z,0.70
2022-08-12T13:16:28.163Z,0.50
2022-08-12T13:18:54.974Z,0.60
2022-08-12T13:21:33.437Z,0.47
2022-08-12T13:24:10.243Z,0.60
2022-08-12T13:26:37.504Z,0.55
2022-08-12T13:29:04.361Z,0.55
2022-08-12T13:31:31.081Z,0.50
2022-08-12T13:34:33.192Z,0.60
2022-08-12T13:36:49.184Z,0.60
2022-08-12T13:39:18.163Z,0.70
2022-08-12T13:41:45.001Z,0.52
2022-08-12T13:44:11.594Z,0.50
2022-08-12T13:46:39.408Z,0.68
2022-08-12T13:49:06.442Z,0.50
2022-08-12T13:51:41.465Z,0.40
2022-08-12T13:56:41.264Z,0.43
2022-08-12T14:01:42.932Z,0.50
2022-08-12T14:04:11.373Z,0.40
2022-08-12T14:06:39.741Z,0.50
2022-08-12T14:09:17.307Z,0.30
2022-08-12T14:11:51.305Z,0.40
2022-08-12T14:14:27.152Z,0.40
2022-08-12T14:16:53.933Z,0.50
2022-08-12T14:19:24.302Z,0.40
2022-08-12T14:22:01.205Z,0.40
2022-08-12T14:24:31.026Z,0.38
2022-08-12T14:26:58.766Z,0.40
2022-08-12T14:29:56.103Z,0.43
2022-08-12T14:32:16.750Z,0.47
2022-08-12T14:34:44.264Z,0.43
2022-08-12T14:37:12.921Z,0.55
2022-08-12T14:39:57.662Z,0.50
2022-08-12T14:42:25.988Z,0.50
2022-08-12T14:44:59.326Z,0.60
2022-08-12T14:47:26.774Z,0.35
2022-08-12T14:50:41.648Z,0.50
2022-08-12T14:54:40.397Z,0.40
2022-08-12T14:58:19.611Z,0.65
2022-08-12T15:00:52.375Z,0.52
2022-08-12T15:03:20.089Z,0.57
2022-08-12T15:06:05.163Z,0.65
2022-08-12T15:08:37.660Z,0.50
2022-08-12T15:11:05.404Z,0.50
2022-08-12T15:13:39.688Z,0.52
2022-08-12T15:16:06.602Z,0.40
2022-08-12T15:18:33.560Z,0.45
2022-08-12T15:21:04.894Z,0.40
2022-08-12T15:23:45.642Z,0.40
2022-08-12T15:26:27.470Z,0.60
2022-08-12T15:28:55.332Z,0.60
2022-08-12T15:31:28.282Z,0.70
2022-08-12T15:34:08.667Z,0.45
2022-08-12T15:36:53.775Z,0.40
2022-08-12T15:39:22.174Z,0.65
2022-08-12T15:41:50.629Z,0.50
2022-08-12T15:44:41.557Z,0.40
2022-08-12T15:47:05.472Z,0.65
2022-08-12T15:49:54.644Z,0.40
2022-08-12T15:52:27.653Z,0.50
2022-08-12T15:54:58.890Z,0.60
2022-08-12T15:57:27.078Z,0.50
2022-08-12T16:00:06.773Z,0.40
2022-08-12T16:02:49.498Z,0.40
2022-08-12T16:06:13.108Z,0.60
2022-08-12T16:08:13.287Z,0.50
2022-08-12T16:10:44.090Z,0.47
2022-08-12T16:13:16.197Z,0.60
2022-08-12T16:15:51.156Z,0.73
2022-08-12T16:18:31.820Z,0.60
2022-08-12T16:20:58.571Z,0.50
2022-08-12T16:23:35.825Z,0.50
2022-08-12T16:26:14.366Z,0.70
2022-08-12T16:28:42.968Z,0.45
2022-08-12T16:31:13.319Z,0.50
2022-08-12T16:33:59.157Z,0.50
2022-08-12T16:36:30.747Z,0.43
2022-08-12T16:39:01.393Z,0.50
2022-08-12T16:41:29.152Z,0.50
2022-08-12T16:44:06.082Z,0.60
2022-08-12T16:46:35.250Z,0.50
2022-08-12T16:49:09.124Z,0.50
2022-08-12T16:51:47.040Z,0.50
2022-08-12T16:54:18.113Z,0.50
2022-08-12T16:56:54.480Z,0.50
2022-08-12T16:59:31.168Z,0.40
2022-08-12T17:02:13.488Z,0.40
2022-08-12T17:05:04.976Z,0.98
2022-08-12T17:07:36.805Z,0.50
2022-08-12T17:10:05.752Z,0.50
2022-08-12T17:12:32.441Z,0.60
2022-08-12T17:14:59.540Z,0.57
2022-08-12T17:17:39.087Z,0.60
2022-08-12T17:20:35.598Z,0.50
2022-08-12T17:23:00.895Z,0.57
2022-08-12T17:25:29.077Z,0.60
2022-08-12T17:27:57.479Z,0.50
2022-08-12T17:30:25.642Z,0.85
2022-08-12T17:32:53.648Z,0.60
2022-08-12T17:35:20.651Z,0.55
2022-08-12T17:37:47.305Z,0.40
2022-08-12T17:40:34.756Z,0.68
2022-08-12T17:43:01.963Z,0.65
2022-08-12T17:45:29.813Z,0.43
2022-08-12T17:48:01.669Z,0.43
2022-08-12T17:50:34.584Z,0.50
2022-08-12T17:53:02.931Z,0.50
2022-08-12T17:55:40.203Z,0.40
2022-08-12T17:58:13.751Z,0.50
2022-08-12T18:00:42.683Z,0.50
2022-08-12T18:03:09.509Z,0.60
2022-08-12T18:05:43.511Z,0.50
2022-08-12T18:08:22.789Z,0.50
2022-08-12T18:11:11.965Z,0.65
2022-08-12T18:13:42.511Z,0.60
2022-08-12T18:16:12.808Z,0.50
2022-08-12T18:18:39.880Z,0.50
2022-08-12T18:21:08.743Z,0.32
2022-08-12T18:23:46.724Z,0.80
2022-08-12T18:26:20.555Z,0.80
2022-08-12T18:28:48.168Z,0.60
2022-08-12T18:31:19.965Z,0.60
2022-08-12T18:33:48.917Z,0.50
2022-08-12T18:36:22.409Z,0.60
2022-08-12T18:38:51.335Z,0.90
2022-08-12T18:41:24.146Z,0.82
2022-08-12T18:43:58.527Z,0.93
2022-08-12T18:46:41.867Z,0.85
2022-08-12T18:49:18.709Z,0.60
2022-08-12T18:51:49.180Z,0.57
2022-08-12T18:54:22.234Z,0.70
2022-08-12T18:56:49.118Z,0.77
2022-08-12T18:59:59.454Z,0.80
2022-08-12T19:02:20.851Z,0.70
2022-08-12T19:04:49.795Z,0.70
2022-08-12T19:07:24.218Z,0.90
2022-08-12T19:09:58.389Z,0.73
2022-08-12T19:12:30.498Z,0.77
2022-08-12T19:15:04.284Z,0.70
2022-08-12T19:17:56.595Z,0.73
2022-08-12T19:20:19.187Z,0.70
2022-08-12T19:22:59.620Z,0.70
2022-08-12T19:26:01.567Z,0.70
2022-08-12T19:28:15.970Z,0.70
2022-08-12T19:30:46.236Z,0.80
2022-08-12T19:33:21.266Z,0.80
2022-08-12T19:36:07.700Z,0.80
2022-08-12T19:38:34.936Z,0.63
2022-08-12T19:41:02.653Z,0.60
2022-08-12T19:43:40.872Z,0.80
2022-08-12T19:46:18.790Z,0.80
2022-08-12T19:48:58.608Z,0.70
2022-08-12T19:51:33.587Z,0.60
2022-08-12T19:54:02.629Z,0.80
2022-08-12T19:56:29.856Z,0.70
2022-08-12T19:58:56.679Z,0.80
2022-08-12T20:01:25.211Z,0.80
2022-08-12T20:06:28.409Z,0.70
2022-08-12T20:08:58.048Z,0.77
2022-08-12T20:12:09.056Z,1.08
2022-08-12T20:14:17.605Z,0.73
2022-08-12T20:16:51.747Z,0.80
2022-08-12T20:19:20.748Z,0.90
2022-08-12T20:21:47.348Z,0.88
2022-08-12T20:24:14.374Z,0.93
2022-08-12T20:26:41.860Z,0.70
2022-08-12T20:29:09.104Z,0.98
2022-08-12T20:31:35.911Z,0.70
2022-08-12T20:34:02.675Z,0.75
2022-08-12T20:36:41.467Z,0.70
2022-08-12T20:39:17.626Z,0.80
2022-08-12T20:41:58.990Z,0.73
2022-08-12T20:44:26.267Z,1.00
2022-08-12T20:46:54.230Z,0.80
2022-08-12T20:49:21.135Z,0.80
2022-08-12T20:51:54.649Z,1.00
2022-08-12T20:54:22.159Z,1.00
2022-08-12T20:56:48.831Z,1.00
2022-08-12T20:59:20.160Z,0.90
2022-08-12T21:01:48.769Z,0.77
2022-08-12T21:04:17.465Z,0.70
2022-08-12T21:06:44.801Z,0.80
2022-08-12T21:09:12.413Z,0.70
2022-08-12T21:11:39.150Z,1.00
2022-08-12T21:14:10.515Z,1.00
2022-08-12T21:16:39.009Z,0.90
2022-08-12T21:19:08.183Z,1.00
2022-08-12T21:21:46.934Z,0.80
2022-08-12T21:24:17.628Z,0.85
2022-08-12T21:26:53.315Z,1.00
2022-08-12T21:29:20.447Z,0.90
2022-08-12T21:32:39.825Z,1.00
2022-08-12T21:34:33.916Z,0.80
2022-08-12T21:37:12.979Z,0.80
2022-08-12T21:39:52.177Z,0.88
2022-08-12T21:42:19.238Z,0.95
2022-08-12T21:45:47.732Z,1.10
2022-08-12T21:47:35.919Z,0.90
2022-08-12T21:50:07.577Z,1.23
2022-08-12T21:52:40.704Z,0.95
2022-08-12T21:55:18.722Z,1.08
2022-08-12T21:57:53.414Z,1.00
2022-08-12T22:00:32.948Z,0.90
2022-08-12T22:03:03.203Z,1.00
2022-08-12T22:05:29.854Z,1.00
2022-08-12T22:07:58.229Z,1.08
2022-08-12T22:10:28.354Z,1.08
2022-08-12T22:12:56.056Z,1.05
2022-08-12T22:15:23.266Z,1.00
2022-08-12T22:17:55.589Z,1.00
2022-08-12T22:20:23.733Z,0.90
2022-08-12T22:22:57.480Z,0.90
2022-08-12T22:25:26.739Z,1.00
2022-08-12T22:27:53.708Z,1.17
2022-08-12T22:30:21.495Z,0.82
2022-08-12T22:32:50.687Z,0.73
2022-08-12T22:35:22.248Z,1.10
2022-08-12T22:37:53.690Z,1.15
2022-08-12T22:40:22.630Z,0.90
2022-08-12T22:42:51.380Z,0.95
2022-08-12T22:45:18.240Z,1.13
2022-08-12T22:47:54.639Z,1.00
2022-08-12T22:50:27.437Z,1.10
2022-08-12T22:53:00.915Z,1.10
2022-08-12T22:56:00.700Z,0.95
2022-08-12T22:58:14.220Z,1.10
2022-08-12T23:00:43.178Z,1.15
2022-08-12T23:03:46.686Z,1.20
2022-08-12T23:06:10.657Z,1.00
2022-08-12T23:08:38.038Z,1.08
2022-08-12T23:11:08.515Z,1.08
2022-08-12T23:13:43.528Z,1.10
2022-08-12T23:18:55.521Z,1.20
2022-08-12T23:21:24.440Z,1.00
2022-08-12T23:24:09.699Z,1.13
2022-08-12T23:26:38.004Z,1.10
2022-08-12T23:29:12.777Z,1.15
2022-08-12T23:32:02.764Z,1.00
2022-08-12T23:34:32.004Z,1.10
2022-08-12T23:36:58.770Z,1.10
2022-08-12T23:40:14.247Z,1.05
2022-08-12T23:42:16.873Z,1.20
2022-08-12T23:44:45.350Z,1.23
2022-08-12T23:47:12.005Z,1.00
2022-08-12T23:49:57.220Z,1.10
2022-08-12T23:52:28.445Z,1.08
2022-08-12T23:55:23.075Z,1.10
2022-08-12T23:58:17.301Z,1.05
